Time;durP1;ratioP1;P1;durP2;ratioP2;P2;SDS_P1;SDS_P2;PMS_P1;PMS_P2;Temp;Humidity;BMP_temperature;BMP_pressure;BME280_temperature;BME280_humidity;BME280_pressure;Samples;Min_cycle;Max_cycle;Signal;HPM_P1;HPM_P2
2021/11/27 00:12:26;;;;;;;67.75;28.45;;;;;;;4.06;100.00;98183.75;714094;1177;114320;-88
2021/11/27 00:27:29;;;;;;;73.00;28.13;;;;;;;4.06;100.00;98186.34;714455;1177;114793;-87
2021/11/27 00:42:31;;;;;;;68.08;27.30;;;;;;;3.94;100.00;98172.75;715456;1206;114750;-88
2021/11/27 00:57:34;;;;;;;70.85;26.70;;;;;;;4.09;100.00;98160.13;713870;1200;114396;-88
2021/11/27 01:12:37;;;;;;;62.40;25.40;;;;;;;3.97;100.00;98141.35;714214;1174;113824;-88
2021/11/27 01:27:40;;;;;;;65.20;26.63;;;;;;;3.97;100.00;98132.73;715050;1203;113680;-88
2021/11/27 01:42:43;;;;;;;62.70;25.45;;;;;;;3.93;100.00;98116.66;713985;1174;114791;-88
2021/11/27 01:57:45;;;;;;;64.00;24.35;;;;;;;3.86;100.00;98096.63;713725;1178;114009;-89
2021/11/27 02:12:49;;;;;;;54.23;21.88;;;;;;;3.79;100.00;98081.64;714036;1202;114318;-85
2021/11/27 02:27:52;;;;;;;50.60;21.05;;;;;;;3.73;100.00;98069.25;713960;1178;115772;-89
2021/11/27 02:42:55;;;;;;;55.43;24.20;;;;;;;3.68;100.00;98068.06;713915;1176;114282;-89
2021/11/27 02:57:58;;;;;;;56.35;20.40;;;;;;;3.61;100.00;98062.64;713818;1202;115130;-88
2021/11/27 03:13:01;;;;;;;46.83;18.30;;;;;;;3.52;100.00;98059.13;713877;1200;114841;-88
2021/11/27 03:28:04;;;;;;;44.33;17.78;;;;;;;3.46;100.00;98041.58;713939;1176;114148;-88
2021/11/27 03:43:07;;;;;;;39.85;16.63;;;;;;;3.38;100.00;98031.94;713923;1199;115637;-88
2021/11/27 03:58:09;;;;;;;41.35;16.35;;;;;;;3.38;100.00;98039.70;713873;1202;114604;-87
2021/11/27 04:13:12;;;;;;;56.53;25.90;;;;;;;3.32;100.00;98051.45;713798;1179;114018;-88
2021/11/27 04:28:15;;;;;;;44.80;19.45;;;;;;;3.30;100.00;98045.61;714288;1200;113839;-86
2021/11/27 04:43:18;;;;;;;49.48;20.98;;;;;;;3.34;100.00;98048.73;715080;1176;113855;-86
2021/11/27 04:58:23;;;;;;;58.13;22.43;;;;;;;3.36;100.00;98049.39;715275;1177;113846;-87
2021/11/27 05:13:25;;;;;;;50.98;21.60;;;;;;;3.37;100.00;98043.25;715835;1199;113961;-87
2021/11/27 05:28:28;;;;;;;50.45;22.00;;;;;;;3.36;100.00;98049.39;714550;1176;113913;-84
2021/11/27 05:43:31;;;;;;;55.98;21.43;;;;;;;3.38;100.00;98052.67;713913;1202;114527;-83
2021/11/27 05:58:34;;;;;;;55.03;21.35;;;;;;;3.31;100.00;98059.37;714238;1178;115360;-84
2021/11/27 06:13:36;;;;;;;66.93;23.80;;;;;;;3.31;100.00;98080.10;714380;1200;115415;-82
2021/11/27 06:28:40;;;;;;;59.33;22.83;;;;;;;3.35;100.00;98109.95;714039;1203;114718;-79
2021/11/27 06:43:42;;;;;;;56.80;22.95;;;;;;;3.41;100.00;98108.59;714320;1199;113916;-85
2021/11/27 06:58:45;;;;;;;46.30;18.23;;;;;;;3.36;100.00;98116.78;714299;1200;115066;-85
2021/11/27 07:13:47;;;;;;;43.75;18.38;;;;;;;3.38;100.00;98112.28;714103;1200;114509;-75
2021/11/27 07:28:52;;;;;;;48.45;19.75;;;;;;;3.46;100.00;98120.16;714229;1192;114506;-75
2021/11/27 07:43:54;;;;;;;47.08;20.00;;;;;;;3.56;100.00;98142.63;713998;1204;114825;-77
2021/11/27 07:58:56;;;;;;;44.53;19.30;;;;;;;3.70;100.00;98144.76;714006;1200;113840;-74
2021/11/27 08:14:00;;;;;;;44.30;18.57;;;;;;;3.68;100.00;98164.81;715413;1199;114429;-76
2021/11/27 08:29:04;;;;;;;168.40;62.60;;;;;;;3.89;100.00;98195.72;714519;1199;114367;-75
2021/11/27 08:44:06;;;;;;;98.55;40.30;;;;;;;4.06;100.00;98214.89;714276;1200;114331;-74
2021/11/27 08:59:10;;;;;;;85.67;34.23;;;;;;;4.09;100.00;98231.95;714168;1200;114324;-75
2021/11/27 09:14:12;;;;;;;49.70;22.47;;;;;;;4.40;100.00;98222.09;715275;1200;115313;-74
2021/11/27 09:29:17;;;;;;;30.85;16.45;;;;;;;4.60;100.00;98212.38;715646;1199;115343;-74
2021/11/27 09:44:20;;;;;;;53.73;23.95;;;;;;;4.78;100.00;98211.59;715971;1199;113876;-74
2021/11/27 09:59:22;;;;;;;136.08;50.88;;;;;;;4.94;100.00;98224.71;715297;1185;113795;-74
2021/11/27 10:14:25;;;;;;;140.48;50.65;;;;;;;4.89;100.00;98228.73;715484;1200;114774;-74
2021/11/27 10:29:35;;;;;;;66.60;30.87;;;;;;;4.92;100.00;98249.21;715689;1200;114659;-75
2021/11/27 10:44:39;;;;;;;36.00;17.03;;;;;;;5.05;100.00;98280.84;716137;1179;113704;-75
2021/11/27 10:59:41;;;;;;;30.90;16.45;;;;;;;4.90;100.00;98287.53;715902;1200;113885;-79
2021/11/27 11:14:44;;;;;;;46.33;19.58;;;;;;;4.81;100.00;98268.44;715341;1199;114423;-82
2021/11/27 11:29:49;;;;;;;22.30;11.78;;;;;;;4.68;100.00;98284.38;717419;1193;114070;-74
2021/11/27 11:44:56;;;;;;;20.25;10.20;;;;;;;4.64;100.00;98299.43;718621;1199;114428;-80
2021/11/27 12:00:21;;;;;;;59.53;27.10;;;;;;;4.68;100.00;98299.16;716404;1200;113598;-73
2021/11/27 12:15:29;;;;;;;44.33;16.53;;;;;;;4.64;100.00;98324.59;715949;1200;113938;-80
2021/11/27 12:30:40;;;;;;;47.50;20.15;;;;;;;4.68;100.00;98320.74;715534;1177;114043;-79
2021/11/27 12:45:46;;;;;;;40.70;16.83;;;;;;;4.65;100.00;98332.23;715284;1199;115869;-74
2021/11/27 13:00:49;;;;;;;22.37;10.47;;;;;;;4.54;100.00;98336.81;715878;1201;114430;-71
2021/11/27 13:15:55;;;;;;;77.10;32.63;;;;;;;4.80;100.00;98349.94;715679;1200;114451;-72
2021/11/27 13:31:01;;;;;;;217.88;69.05;;;;;;;4.75;100.00;98354.75;715301;1176;114011;-75
2021/11/27 13:46:04;;;;;;;48.78;22.93;;;;;;;4.63;100.00;98365.34;715510;1199;114952;-78
2021/11/27 14:01:13;;;;;;;176.83;58.70;;;;;;;4.77;100.00;98377.02;716655;1174;113992;-77
2021/11/27 14:16:20;;;;;;;57.43;26.37;;;;;;;4.89;100.00;98387.23;715536;1184;114523;-83
2021/11/27 14:31:35;;;;;;;123.05;45.50;;;;;;;4.90;100.00;98405.27;723392;1203;114984;-73
2021/11/27 14:46:47;;;;;;;67.93;33.00;;;;;;;4.70;100.00;98419.30;715276;1177;115386;-74
2021/11/27 15:01:51;;;;;;;36.18;16.68;;;;;;;4.47;100.00;98435.24;714139;1199;114548;-73
2021/11/27 15:16:54;;;;;;;157.68;62.05;;;;;;;4.42;100.00;98437.44;714103;1199;115980;-73
2021/11/27 15:32:02;;;;;;;56.53;23.20;;;;;;;4.38;100.00;98449.91;714823;1199;114315;-75
2021/11/27 15:47:06;;;;;;;29.23;13.40;;;;;;;4.32;100.00;98446.08;714349;1203;114772;-74
2021/11/27 16:02:09;;;;;;;44.80;20.85;;;;;;;4.38;100.00;98478.47;714045;1199;114845;-74
2021/11/27 16:17:14;;;;;;;35.05;18.53;;;;;;;4.37;100.00;98487.21;714338;1177;114628;-74
2021/11/27 16:32:17;;;;;;;35.68;17.23;;;;;;;4.33;100.00;98476.28;714531;1199;114962;-74
2021/11/27 16:47:20;;;;;;;30.30;16.40;;;;;;;4.30;100.00;98460.15;714240;1203;113999;-74
2021/11/27 17:02:23;;;;;;;71.53;38.13;;;;;;;4.21;100.00;98482.59;714624;1177;113937;-72
2021/11/27 17:17:26;;;;;;;46.33;20.90;;;;;;;4.08;100.00;98505.39;714886;1177;113920;-74
2021/11/27 17:32:28;;;;;;;41.60;19.80;;;;;;;4.06;100.00;98508.13;714110;1177;113484;-75
2021/11/27 17:47:31;;;;;;;40.97;19.10;;;;;;;4.16;100.00;98534.09;714387;1202;115609;-76
2021/11/27 18:02:35;;;;;;;125.68;36.20;;;;;;;4.11;100.00;98544.06;715533;1203;114503;-73
2021/11/27 18:17:38;;;;;;;58.87;25.70;;;;;;;4.20;100.00;98529.42;714536;1203;115814;-74
2021/11/27 18:32:40;;;;;;;220.03;58.03;;;;;;;4.30;100.00;98540.63;716761;1203;114313;-73
2021/11/27 18:47:43;;;;;;;68.63;28.08;;;;;;;4.43;100.00;98537.75;714324;1177;114721;-74
2021/11/27 19:02:45;;;;;;;131.85;56.43;;;;;;;4.24;100.00;98556.78;713857;1178;114198;-73
2021/11/27 19:17:49;;;;;;;55.33;25.90;;;;;;;4.18;100.00;98559.91;714036;1199;115588;-73
2021/11/27 19:32:53;;;;;;;73.53;29.55;;;;;;;4.06;100.00;98570.41;721794;1199;114016;-93
2021/11/27 19:47:55;;;;;;;52.08;22.85;;;;;;;3.76;100.00;98599.85;716055;1179;114378;-74
2021/11/27 20:02:58;;;;;;;43.90;20.98;;;;;;;3.80;100.00;98601.22;715955;1189;114130;-74
2021/11/27 20:18:01;;;;;;;55.88;24.00;;;;;;;3.89;100.00;98607.40;716964;1175;114028;-74
2021/11/27 20:33:04;;;;;;;67.13;28.33;;;;;;;3.98;100.00;98604.00;715733;1177;114362;-84
2021/11/27 20:48:08;;;;;;;57.30;24.00;;;;;;;4.03;100.00;98595.83;716535;1176;113825;-84
2021/11/27 21:03:11;;;;;;;58.00;25.03;;;;;;;4.00;100.00;98610.70;715719;1178;113946;-76
2021/11/27 21:18:13;;;;;;;58.93;24.70;;;;;;;3.99;100.00;98600.46;718325;1177;114047;-77
2021/11/27 21:33:16;;;;;;;75.05;28.88;;;;;;;4.06;100.00;98585.98;716519;1178;113914;-76
2021/11/27 21:48:19;;;;;;;60.63;24.83;;;;;;;4.06;100.00;98591.17;714294;1199;114407;-77
2021/11/27 22:03:21;;;;;;;65.95;26.98;;;;;;;4.00;100.00;98591.73;714230;1177;114440;-76
2021/11/27 22:18:24;;;;;;;58.37;22.83;;;;;;;3.97;100.00;98568.63;714130;1177;114811;-76
2021/11/27 22:33:28;;;;;;;57.75;21.55;;;;;;;3.86;100.00;98577.35;714355;1199;114596;-77
2021/11/27 22:48:30;;;;;;;51.03;20.43;;;;;;;3.63;100.00;98589.74;714341;1177;114183;-77
2021/11/27 23:03:34;;;;;;;55.50;20.58;;;;;;;3.56;100.00;98579.05;714158;1177;113975;-76
2021/11/27 23:18:40;;;;;;;39.03;16.23;;;;;;;3.37;100.00;98584.20;714445;1200;115008;-77
2021/11/27 23:33:43;;;;;;;44.58;17.23;;;;;;;3.15;100.00;98589.42;714045;1177;114263;-76
2021/11/27 23:48:46;;;;;;;35.40;15.03;;;;;;;2.89;100.00;98580.41;714068;1199;114486;-77
